sensor_id;sensor_type;location;lat;lon;timestamp;pressure;altitude;pressure_sealevel;temperature;humidity
26719;BME280;14326;50.794;6.060;2023-05-14T00:01:51;99923.06;;;10.84;100.00
26719;BME280;14326;50.794;6.060;2023-05-14T00:04:49;99911.69;;;10.95;100.00
26719;BME280;14326;50.794;6.060;2023-05-14T00:07:50;99914.31;;;10.94;100.00
26719;BME280;14326;50.794;6.060;2023-05-14T00:10:34;99906.19;;;10.85;100.00
26719;BME280;14326;50.794;6.060;2023-05-14T00:14:04;99910.56;;;10.80;100.00
26719;BME280;14326;50.794;6.060;2023-05-14T00:16:13;99898.09;;;10.74;100.00
26719;BME280;14326;50.794;6.060;2023-05-14T00:18:50;99900.72;;;10.73;100.00
26719;BME280;14326;50.794;6.060;2023-05-14T00:21:43;99900.81;;;10.80;100.00
26719;BME280;14326;50.794;6.060;2023-05-14T00:24:33;99898.19;;;10.82;100.00
26719;BME280;14326;50.794;6.060;2023-05-14T00:27:16;99908.75;;;10.76;100.00
26719;BME280;14326;50.794;6.060;2023-05-14T00:30:03;99900.56;;;10.62;100.00
26719;BME280;14326;50.794;6.060;2023-05-14T00:32:47;99900.47;;;10.53;100.00
26719;BME280;14326;50.794;6.060;2023-05-14T00:35:48;99893.28;;;10.49;100.00
26719;BME280;14326;50.794;6.060;2023-05-14T00:41:32;99890.56;;;10.43;100.00
26719;BME280;14326;50.794;6.060;2023-05-14T00:44:20;99893.22;;;10.43;100.00
26719;BME280;14326;50.794;6.060;2023-05-14T00:46:57;99881.81;;;10.48;100.00
26719;BME280;14326;50.794;6.060;2023-05-14T00:49:48;99885.41;;;10.53;100.00
26719;BME280;14326;50.794;6.060;2023-05-14T00:59:05;99889.97;;;10.05;100.00
26719;BME280;14326;50.794;6.060;2023-05-14T01:01:51;99889.91;;;10.02;100.00
26719;BME280;14326;50.794;6.060;2023-05-14T01:04:27;99889.97;;;10.05;100.00
26719;BME280;14326;50.794;6.060;2023-05-14T01:07:29;99889.03;;;10.03;100.00
26719;BME280;14326;50.794;6.060;2023-05-14T01:13:05;99891.59;;;9.95;100.00
26719;BME280;14326;50.794;6.060;2023-05-14T01:19:28;99895.16;;;9.97;100.00
26719;BME280;14326;50.794;6.060;2023-05-14T01:22:31;99881.84;;;9.96;100.00
26719;BME280;14326;50.794;6.060;2023-05-14T01:25:04;99880.28;;;10.07;100.00
26719;BME280;14326;50.794;6.060;2023-05-14T01:27:54;99868.97;;;10.20;100.00
26719;BME280;14326;50.794;6.060;2023-05-14T01:30:39;99874.25;;;10.17;100.00
26719;BME280;14326;50.794;6.060;2023-05-14T01:33:20;99870.47;;;10.04;100.00
26719;BME280;14326;50.794;6.060;2023-05-14T01:36:10;99875.56;;;9.91;100.00
26719;BME280;14326;50.794;6.060;2023-05-14T01:39:04;99874.53;;;9.81;100.00
26719;BME280;14326;50.794;6.060;2023-05-14T01:42:09;99875.47;;;9.84;100.00
26719;BME280;14326;50.794;6.060;2023-05-14T01:44:57;99876.25;;;9.79;100.00
26719;BME280;14326;50.794;6.060;2023-05-14T01:47:47;99871.75;;;9.73;100.00
26719;BME280;14326;50.794;6.060;2023-05-14T01:50:26;99873.50;;;9.73;100.00
26719;BME280;14326;50.794;6.060;2023-05-14T01:53:24;99866.50;;;9.76;100.00
26719;BME280;14326;50.794;6.060;2023-05-14T01:56:09;99870.03;;;9.75;100.00
26719;BME280;14326;50.794;6.060;2023-05-14T01:59:04;99872.75;;;9.80;100.00
26719;BME280;14326;50.794;6.060;2023-05-14T02:01:33;99873.66;;;9.82;100.00
26719;BME280;14326;50.794;6.060;2023-05-14T02:04:02;99870.88;;;9.74;100.00
26719;BME280;14326;50.794;6.060;2023-05-14T02:06:28;99858.47;;;9.72;100.00
26719;BME280;14326;50.794;6.060;2023-05-14T02:08:58;99864.53;;;9.66;100.00
26719;BME280;14326;50.794;6.060;2023-05-14T02:11:26;99863.53;;;9.58;100.00
26719;BME280;14326;50.794;6.060;2023-05-14T02:13:59;99862.59;;;9.56;100.00
26719;BME280;14326;50.794;6.060;2023-05-14T02:16:44;99854.56;;;9.52;100.00
26719;BME280;14326;50.794;6.060;2023-05-14T02:19:17;99851.97;;;9.56;100.00
26719;BME280;14326;50.794;6.060;2023-05-14T02:25:07;99848.31;;;9.50;100.00
26719;BME280;14326;50.794;6.060;2023-05-14T02:27:44;99841.31;;;9.53;100.00
26719;BME280;14326;50.794;6.060;2023-05-14T02:30:11;99842.91;;;9.42;100.00
26719;BME280;14326;50.794;6.060;2023-05-14T02:32:50;99848.13;;;9.36;100.00
26719;BME280;14326;50.794;6.060;2023-05-14T02:35:29;99848.25;;;9.45;100.00
26719;BME280;14326;50.794;6.060;2023-05-14T02:38:12;99839.47;;;9.49;100.00
26719;BME280;14326;50.794;6.060;2023-05-14T02:40:39;99841.09;;;9.39;100.00
26719;BME280;14326;50.794;6.060;2023-05-14T02:43:11;99832.22;;;9.39;100.00
26719;BME280;14326;50.794;6.060;2023-05-14T02:46:11;99836.81;;;9.48;100.00
26719;BME280;14326;50.794;6.060;2023-05-14T02:49:16;99834.25;;;9.55;100.00
26719;BME280;14326;50.794;6.060;2023-05-14T02:52:24;99831.59;;;9.54;100.00
26719;BME280;14326;50.794;6.060;2023-05-14T02:55:05;99842.81;;;9.37;100.00
26719;BME280;14326;50.794;6.060;2023-05-14T02:57:38;99837.38;;;9.30;100.00
26719;BME280;14326;50.794;6.060;2023-05-14T03:03:47;99839.81;;;9.18;100.00
26719;BME280;14326;50.794;6.060;2023-05-14T03:06:28;99843.25;;;9.14;100.00
26719;BME280;14326;50.794;6.060;2023-05-14T03:09:07;99845.78;;;9.08;100.00
26719;BME280;14326;50.794;6.060;2023-05-14T03:11:34;99848.50;;;9.09;100.00
26719;BME280;14326;50.794;6.060;2023-05-14T03:14:05;99846.56;;;9.02;100.00
26719;BME280;14326;50.794;6.060;2023-05-14T03:16:48;99851.91;;;9.03;100.00
26719;BME280;14326;50.794;6.060;2023-05-14T03:19:45;99853.63;;;9.01;100.00
26719;BME280;14326;50.794;6.060;2023-05-14T03:22:34;99849.22;;;9.00;100.00
26719;BME280;14326;50.794;6.060;2023-05-14T03:28:23;99838.69;;;9.05;100.00
26719;BME280;14326;50.794;6.060;2023-05-14T03:31:06;99828.13;;;9.07;100.00
26719;BME280;14326;50.794;6.060;2023-05-14T03:33:52;99831.75;;;9.12;100.00
26719;BME280;14326;50.794;6.060;2023-05-14T03:36:35;99826.53;;;9.18;100.00
26719;BME280;14326;50.794;6.060;2023-05-14T03:39:17;99824.69;;;9.14;100.00
26719;BME280;14326;50.794;6.060;2023-05-14T03:41:54;99831.75;;;9.12;100.00
26719;BME280;14326;50.794;6.060;2023-05-14T03:44:23;99828.91;;;9.01;100.00
26719;BME280;14326;50.794;6.060;2023-05-14T03:47:00;99824.41;;;8.98;100.00
26719;BME280;14326;50.794;6.060;2023-05-14T03:49:42;99828.78;;;8.96;100.00
26719;BME280;14326;50.794;6.060;2023-05-14T03:52:26;99823.41;;;8.92;100.00
26719;BME280;14326;50.794;6.060;2023-05-14T03:55:05;99823.47;;;8.95;100.00
26719;BME280;14326;50.794;6.060;2023-05-14T03:57:34;99832.31;;;8.95;100.00
26719;BME280;14326;50.794;6.060;2023-05-14T04:00:13;99820.59;;;8.84;100.00
26719;BME280;14326;50.794;6.060;2023-05-14T04:02:42;99821.50;;;8.85;100.00
26719;BME280;14326;50.794;6.060;2023-05-14T04:05:26;99825.00;;;8.84;100.00
26719;BME280;14326;50.794;6.060;2023-05-14T04:08:00;99821.28;;;8.74;100.00
26719;BME280;14326;50.794;6.060;2023-05-14T04:10:30;99816.84;;;8.73;100.00
26719;BME280;14326;50.794;6.060;2023-05-14T04:12:57;99811.53;;;8.72;100.00
26719;BME280;14326;50.794;6.060;2023-05-14T04:15:24;99821.22;;;8.70;100.00
26719;BME280;14326;50.794;6.060;2023-05-14T04:17:50;99816.72;;;8.67;100.00
26719;BME280;14326;50.794;6.060;2023-05-14T04:20:18;99818.59;;;8.71;100.00
26719;BME280;14326;50.794;6.060;2023-05-14T04:22:45;99821.25;;;8.71;100.00
26719;BME280;14326;50.794;6.060;2023-05-14T04:25:13;99813.41;;;8.79;100.00
26719;BME280;14326;50.794;6.060;2023-05-14T04:27:46;99821.25;;;8.73;100.00
26719;BME280;14326;50.794;6.060;2023-05-14T04:30:28;99823.00;;;8.72;100.00
26719;BME280;14326;50.794;6.060;2023-05-14T04:33:05;99812.50;;;8.77;100.00
26719;BME280;14326;50.794;6.060;2023-05-14T04:35:56;99822.28;;;8.79;100.00
26719;BME280;14326;50.794;6.060;2023-05-14T04:38:36;99806.66;;;8.94;100.00
26719;BME280;14326;50.794;6.060;2023-05-14T04:41:13;99815.75;;;9.09;100.00
26719;BME280;14326;50.794;6.060;2023-05-14T04:47:03;99817.63;;;9.14;100.00
26719;BME280;14326;50.794;6.060;2023-05-14T04:49:56;99814.00;;;9.09;100.00
26719;BME280;14326;50.794;6.060;2023-05-14T04:55:28;99812.41;;;9.20;100.00
26719;BME280;14326;50.794;6.060;2023-05-14T04:58:26;99818.81;;;9.30;100.00
26719;BME280;14326;50.794;6.060;2023-05-14T05:00:55;99810.88;;;9.33;100.00
26719;BME280;14326;50.794;6.060;2023-05-14T05:03:34;99818.13;;;9.41;100.00
26719;BME280;14326;50.794;6.060;2023-05-14T05:06:13;99819.22;;;9.54;100.00
26719;BME280;14326;50.794;6.060;2023-05-14T05:09:02;99816.78;;;9.69;100.00
26719;BME280;14326;50.794;6.060;2023-05-14T05:11:31;99817.84;;;9.80;100.00
26719;BME280;14326;50.794;6.060;2023-05-14T05:13:57;99808.25;;;9.89;100.00
26719;BME280;14326;50.794;6.060;2023-05-14T05:16:24;99821.66;;;9.98;100.00
26719;BME280;14326;50.794;6.060;2023-05-14T05:18:51;99820.03;;;10.09;100.00
26719;BME280;14326;50.794;6.060;2023-05-14T05:21:17;99814.06;;;10.22;100.00
26719;BME280;14326;50.794;6.060;2023-05-14T05:24:06;99802.75;;;10.37;100.00
26719;BME280;14326;50.794;6.060;2023-05-14T05:26:44;99808.25;;;10.52;100.00
26719;BME280;14326;50.794;6.060;2023-05-14T05:29:46;99802.19;;;10.63;100.00
26719;BME280;14326;50.794;6.060;2023-05-14T05:32:13;99814.69;;;10.72;100.00
26719;BME280;14326;50.794;6.060;2023-05-14T05:34:40;99814.81;;;10.81;100.00
26719;BME280;14326;50.794;6.060;2023-05-14T05:37:06;99806.09;;;10.97;100.00
26719;BME280;14326;50.794;6.060;2023-05-14T05:39:37;99812.44;;;11.07;100.00
26719;BME280;14326;50.794;6.060;2023-05-14T05:42:06;99816.97;;;11.20;100.00
26719;BME280;14326;50.794;6.060;2023-05-14T05:44:34;99812.66;;;11.33;100.00
26719;BME280;14326;50.794;6.060;2023-05-14T05:47:26;99816.41;;;11.53;100.00
26719;BME280;14326;50.794;6.060;2023-05-14T05:53:23;99807.81;;;11.87;100.00
26719;BME280;14326;50.794;6.060;2023-05-14T05:56:15;99822.25;;;12.26;100.00
26719;BME280;14326;50.794;6.060;2023-05-14T05:59:09;99832.16;;;12.50;100.00
26719;BME280;14326;50.794;6.060;2023-05-14T06:02:00;99822.47;;;12.73;100.00
26719;BME280;14326;50.794;6.060;2023-05-14T06:04:42;99813.69;;;12.95;100.00
26719;BME280;14326;50.794;6.060;2023-05-14T06:07:08;99817.31;;;13.23;100.00
26719;BME280;14326;50.794;6.060;2023-05-14T06:09:37;99828.03;;;13.38;100.00
26719;BME280;14326;50.794;6.060;2023-05-14T06:15:06;99834.28;;;13.68;100.00
26719;BME280;14326;50.794;6.060;2023-05-14T06:17:32;99839.63;;;13.69;100.00
26719;BME280;14326;50.794;6.060;2023-05-14T06:19:59;99836.06;;;13.85;100.00
26719;BME280;14326;50.794;6.060;2023-05-14T06:22:43;99844.09;;;13.87;100.00
26719;BME280;14326;50.794;6.060;2023-05-14T06:25:12;99843.19;;;13.96;100.00
26719;BME280;14326;50.794;6.060;2023-05-14T06:27:47;99853.91;;;14.02;100.00
26719;BME280;14326;50.794;6.060;2023-05-14T06:30:21;99851.19;;;14.09;100.00
26719;BME280;14326;50.794;6.060;2023-05-14T06:32:48;99847.63;;;14.12;100.00
26719;BME280;14326;50.794;6.060;2023-05-14T06:35:14;99847.63;;;14.18;100.00
26719;BME280;14326;50.794;6.060;2023-05-14T06:37:44;99845.84;;;14.24;100.00
26719;BME280;14326;50.794;6.060;2023-05-14T06:40:18;99837.75;;;14.32;100.00
26719;BME280;14326;50.794;6.060;2023-05-14T06:42:50;99834.19;;;14.34;100.00
26719;BME280;14326;50.794;6.060;2023-05-14T06:45:30;99839.53;;;14.44;100.00
26719;BME280;14326;50.794;6.060;2023-05-14T06:48:03;99840.44;;;14.52;100.00
26719;BME280;14326;50.794;6.060;2023-05-14T06:50:30;99834.16;;;14.60;100.00
26719;BME280;14326;50.794;6.060;2023-05-14T06:53:05;99834.97;;;14.74;100.00
26719;BME280;14326;50.794;6.060;2023-05-14T06:55:36;99838.59;;;14.63;99.24
26719;BME280;14326;50.794;6.060;2023-05-14T06:58:10;99834.19;;;14.45;100.00
26719;BME280;14326;50.794;6.060;2023-05-14T07:00:43;99837.75;;;14.50;100.00
26719;BME280;14326;50.794;6.060;2023-05-14T07:09:09;99844.06;;;14.25;100.00
26719;BME280;14326;50.794;6.060;2023-05-14T07:11:36;99854.75;;;14.16;100.00
26719;BME280;14326;50.794;6.060;2023-05-14T07:14:02;99844.94;;;13.97;100.00
26719;BME280;14326;50.794;6.060;2023-05-14T07:16:39;99850.31;;;13.81;100.00
26719;BME280;14326;50.794;6.060;2023-05-14T07:19:21;99857.44;;;13.69;100.00
26719;BME280;14326;50.794;6.060;2023-05-14T07:21:48;99866.38;;;13.54;100.00
26719;BME280;14326;50.794;6.060;2023-05-14T07:24:34;99863.66;;;13.49;100.00
26719;BME280;14326;50.794;6.060;2023-05-14T07:27:15;99852.97;;;13.49;100.00
26719;BME280;14326;50.794;6.060;2023-05-14T07:30:13;99856.53;;;13.51;100.00
26719;BME280;14326;50.794;6.060;2023-05-14T07:33:04;99855.66;;;13.51;100.00
26719;BME280;14326;50.794;6.060;2023-05-14T07:35:39;99858.31;;;13.62;100.00
26719;BME280;14326;50.794;6.060;2023-05-14T07:38:08;99853.88;;;13.67;100.00
26719;BME280;14326;50.794;6.060;2023-05-14T07:40:40;99860.13;;;13.64;100.00
26719;BME280;14326;50.794;6.060;2023-05-14T07:43:10;99853.91;;;13.65;100.00
26719;BME280;14326;50.794;6.060;2023-05-14T07:45:45;99859.22;;;13.73;100.00
26719;BME280;14326;50.794;6.060;2023-05-14T07:48:33;99852.13;;;13.82;100.00
26719;BME280;14326;50.794;6.060;2023-05-14T07:51:35;99846.75;;;13.85;100.00
26719;BME280;14326;50.794;6.060;2023-05-14T07:54:44;99853.91;;;13.89;100.00
26719;BME280;14326;50.794;6.060;2023-05-14T07:57:10;99846.75;;;13.94;100.00
26719;BME280;14326;50.794;6.060;2023-05-14T07:59:56;99846.75;;;14.04;100.00
26719;BME280;14326;50.794;6.060;2023-05-14T08:02:33;99854.75;;;14.02;100.00
26719;BME280;14326;50.794;6.060;2023-05-14T08:05:10;99844.03;;;14.14;100.00
26719;BME280;14326;50.794;6.060;2023-05-14T08:07:37;99840.47;;;14.30;100.00
26719;BME280;14326;50.794;6.060;2023-05-14T08:10:11;99841.31;;;14.43;100.00
26719;BME280;14326;50.794;6.060;2023-05-14T08:12:39;99842.19;;;14.65;100.00
26719;BME280;14326;50.794;6.060;2023-05-14T08:15:19;99838.38;;;15.11;100.00
26719;BME280;14326;50.794;6.060;2023-05-14T08:18:01;99846.28;;;15.34;100.00
26719;BME280;14326;50.794;6.060;2023-05-14T08:20:44;99842.63;;;15.47;100.00
26719;BME280;14326;50.794;6.060;2023-05-14T08:23:24;99842.50;;;15.66;97.00
26719;BME280;14326;50.794;6.060;2023-05-14T08:29:11;99842.28;;;15.93;97.70
26719;BME280;14326;50.794;6.060;2023-05-14T08:35:13;99838.53;;;16.11;94.58
26719;BME280;14326;50.794;6.060;2023-05-14T08:40:47;99842.63;;;16.47;93.71
26719;BME280;14326;50.794;6.060;2023-05-14T08:43:19;99845.25;;;16.50;92.25
26719;BME280;14326;50.794;6.060;2023-05-14T08:46:03;99845.41;;;16.37;93.10
26719;BME280;14326;50.794;6.060;2023-05-14T08:48:37;99850.13;;;16.14;93.27
26719;BME280;14326;50.794;6.060;2023-05-14T08:51:24;99841.16;;;16.17;93.63
26719;BME280;14326;50.794;6.060;2023-05-14T08:53:54;99848.59;;;15.86;95.85
26719;BME280;14326;50.794;6.060;2023-05-14T08:56:31;99849.59;;;15.73;96.14
26719;BME280;14326;50.794;6.060;2023-05-14T08:59:12;99847.84;;;15.70;96.42
26719;BME280;14326;50.794;6.060;2023-05-14T09:01:47;99840.75;;;15.62;98.23
26719;BME280;14326;50.794;6.060;2023-05-14T09:04:14;99842.59;;;15.53;97.82
26719;BME280;14326;50.794;6.060;2023-05-14T09:06:42;99843.56;;;15.40;97.27
26719;BME280;14326;50.794;6.060;2023-05-14T09:09:17;99844.53;;;15.27;97.95
26719;BME280;14326;50.794;6.060;2023-05-14T09:12:00;99833.75;;;15.33;97.99
26719;BME280;14326;50.794;6.060;2023-05-14T09:14:29;99835.47;;;15.48;97.43
26719;BME280;14326;50.794;6.060;2023-05-14T09:16:55;99843.56;;;15.40;97.32
26719;BME280;14326;50.794;6.060;2023-05-14T09:19:29;99832.66;;;15.68;97.03
26719;BME280;14326;50.794;6.060;2023-05-14T09:22:10;99836.22;;;15.70;96.71
26719;BME280;14326;50.794;6.060;2023-05-14T09:25:09;99842.47;;;15.72;97.77
26719;BME280;14326;50.794;6.060;2023-05-14T09:27:41;99847.78;;;15.73;96.76
26719;BME280;14326;50.794;6.060;2023-05-14T09:30:12;99847.63;;;15.93;95.21
26719;BME280;14326;50.794;6.060;2023-05-14T09:32:54;99843.97;;;16.03;92.61
26719;BME280;14326;50.794;6.060;2023-05-14T09:35:46;99841.22;;;16.12;92.45
26719;BME280;14326;50.794;6.060;2023-05-14T09:38:14;99836.75;;;16.10;92.59
26719;BME280;14326;50.794;6.060;2023-05-14T09:40:41;99828.56;;;16.25;92.23
26719;BME280;14326;50.794;6.060;2023-05-14T09:43:09;99840.06;;;16.34;91.00
26719;BME280;14326;50.794;6.060;2023-05-14T09:45:37;99833.50;;;16.66;90.29
26719;BME280;14326;50.794;6.060;2023-05-14T09:48:35;99832.34;;;16.85;89.15
26719;BME280;14326;50.794;6.060;2023-05-14T09:51:25;99842.94;;;16.97;88.88
26719;BME280;14326;50.794;6.060;2023-05-14T09:54:18;99840.81;;;17.20;86.60
26719;BME280;14326;50.794;6.060;2023-05-14T09:56:58;99836.09;;;17.38;85.97
26719;BME280;14326;50.794;6.060;2023-05-14T10:03:05;99836.63;;;17.64;85.66
26719;BME280;14326;50.794;6.060;2023-05-14T10:05:35;99839.03;;;17.79;82.62
26719;BME280;14326;50.794;6.060;2023-05-14T10:08:06;99828.84;;;17.99;80.87
26719;BME280;14326;50.794;6.060;2023-05-14T10:10:34;99828.84;;;17.99;80.02
26719;BME280;14326;50.794;6.060;2023-05-14T10:13:03;99840.28;;;18.14;81.67
26719;BME280;14326;50.794;6.060;2023-05-14T10:15:39;99824.94;;;18.17;81.52
26719;BME280;14326;50.794;6.060;2023-05-14T10:18:11;99821.94;;;18.34;79.87
26719;BME280;14326;50.794;6.060;2023-05-14T10:20:42;99820.06;;;18.37;80.47
26719;BME280;14326;50.794;6.060;2023-05-14T10:23:09;99809.66;;;18.65;80.17
26719;BME280;14326;50.794;6.060;2023-05-14T10:25:48;99812.91;;;18.83;80.58
26719;BME280;14326;50.794;6.060;2023-05-14T10:28:15;99814.47;;;18.93;79.14
26719;BME280;14326;50.794;6.060;2023-05-14T10:30:44;99814.97;;;19.10;76.94
26719;BME280;14326;50.794;6.060;2023-05-14T10:33:14;99816.47;;;19.25;78.11
26719;BME280;14326;50.794;6.060;2023-05-14T10:36:02;99815.59;;;19.22;75.31
26719;BME280;14326;50.794;6.060;2023-05-14T10:38:31;99808.25;;;19.29;75.43
26719;BME280;14326;50.794;6.060;2023-05-14T10:41:00;99808.78;;;19.45;77.26
26719;BME280;14326;50.794;6.060;2023-05-14T10:43:28;99805.53;;;19.68;75.81
26719;BME280;14326;50.794;6.060;2023-05-14T10:45:57;99798.75;;;19.88;73.87
26719;BME280;14326;50.794;6.060;2023-05-14T10:48:36;99803.19;;;19.91;75.10
26719;BME280;14326;50.794;6.060;2023-05-14T10:51:02;99805.16;;;19.84;73.28
26719;BME280;14326;50.794;6.060;2023-05-14T10:53:36;99798.81;;;19.85;74.33
26719;BME280;14326;50.794;6.060;2023-05-14T10:56:17;99791.97;;;19.72;74.36
26719;BME280;14326;50.794;6.060;2023-05-14T10:58:57;99787.00;;;19.91;73.35
26719;BME280;14326;50.794;6.060;2023-05-14T11:01:27;99779.06;;;20.17;73.58
26719;BME280;14326;50.794;6.060;2023-05-14T11:04:06;99783.69;;;20.46;73.59
26719;BME280;14326;50.794;6.060;2023-05-14T11:06:34;99785.97;;;20.61;72.87
26719;BME280;14326;50.794;6.060;2023-05-14T11:09:03;99779.03;;;20.82;71.90
26719;BME280;14326;50.794;6.060;2023-05-14T11:11:30;99774.03;;;20.98;70.74
26719;BME280;14326;50.794;6.060;2023-05-14T11:13:57;99769.69;;;20.92;71.10
26719;BME280;14326;50.794;6.060;2023-05-14T11:16:26;99772.03;;;21.04;66.42
26719;BME280;14326;50.794;6.060;2023-05-14T11:19:01;99766.63;;;21.34;65.96
26719;BME280;14326;50.794;6.060;2023-05-14T11:21:28;99768.69;;;21.26;64.09
26719;BME280;14326;50.794;6.060;2023-05-14T11:23:55;99766.94;;;21.24;62.64
26719;BME280;14326;50.794;6.060;2023-05-14T11:26:22;99762.25;;;21.56;66.71
26719;BME280;14326;50.794;6.060;2023-05-14T11:28:49;99763.63;;;21.69;67.84
26719;BME280;14326;50.794;6.060;2023-05-14T11:31:15;99753.06;;;21.88;66.96
26719;BME280;14326;50.794;6.060;2023-05-14T11:33:43;99756.09;;;21.79;66.66
26719;BME280;14326;50.794;6.060;2023-05-14T11:36:11;99746.38;;;21.73;67.12
26719;BME280;14326;50.794;6.060;2023-05-14T11:38:45;99740.13;;;21.71;67.25
26719;BME280;14326;50.794;6.060;2023-05-14T11:41:13;99742.78;;;21.73;66.43
26719;BME280;14326;50.794;6.060;2023-05-14T11:43:40;99748.72;;;21.30;62.41
26719;BME280;14326;50.794;6.060;2023-05-14T11:46:06;99732.06;;;21.68;63.14
26719;BME280;14326;50.794;6.060;2023-05-14T11:48:33;99734.31;;;21.82;58.44
26719;BME280;14326;50.794;6.060;2023-05-14T11:51:00;99730.41;;;21.90;59.08
26719;BME280;14326;50.794;6.060;2023-05-14T11:53:28;99730.91;;;22.03;59.20
26719;BME280;14326;50.794;6.060;2023-05-14T11:55:55;99726.03;;;22.13;56.52
26719;BME280;14326;50.794;6.060;2023-05-14T11:58:23;99722.94;;;22.23;55.17
26719;BME280;14326;50.794;6.060;2023-05-14T12:00:51;99721.81;;;22.29;56.80
26719;BME280;14326;50.794;6.060;2023-05-14T12:03:17;99715.66;;;22.49;56.81
26719;BME280;14326;50.794;6.060;2023-05-14T12:05:55;99710.34;;;22.45;57.39
26719;BME280;14326;50.794;6.060;2023-05-14T12:08:25;99712.94;;;22.73;59.65
26719;BME280;14326;50.794;6.060;2023-05-14T12:10:54;99711.03;;;22.75;57.02
26719;BME280;14326;50.794;6.060;2023-05-14T12:13:23;99707.81;;;22.64;56.62
26719;BME280;14326;50.794;6.060;2023-05-14T12:15:54;99714.25;;;22.62;54.87
26719;BME280;14326;50.794;6.060;2023-05-14T12:18:24;99704.63;;;22.78;57.81
26719;BME280;14326;50.794;6.060;2023-05-14T12:20:54;99697.00;;;22.88;57.07
26719;BME280;14326;50.794;6.060;2023-05-14T12:23:24;99695.34;;;22.83;58.57
26719;BME280;14326;50.794;6.060;2023-05-14T12:25:51;99696.84;;;23.14;56.06
26719;BME280;14326;50.794;6.060;2023-05-14T12:28:19;99688.75;;;23.12;55.21
26719;BME280;14326;50.794;6.060;2023-05-14T12:30:46;99686.41;;;23.03;54.95
26719;BME280;14326;50.794;6.060;2023-05-14T12:33:15;99687.22;;;23.05;55.06
26719;BME280;14326;50.794;6.060;2023-05-14T12:35:42;99676.97;;;23.13;52.92
26719;BME280;14326;50.794;6.060;2023-05-14T12:38:08;99673.09;;;22.97;53.31
26719;BME280;14326;50.794;6.060;2023-05-14T12:40:35;99667.44;;;22.33;57.54
26719;BME280;14326;50.794;6.060;2023-05-14T12:43:02;99659.63;;;22.49;56.91
26719;BME280;14326;50.794;6.060;2023-05-14T12:45:30;99658.91;;;22.44;56.52
26719;BME280;14326;50.794;6.060;2023-05-14T12:47:57;99658.25;;;22.61;56.67
26719;BME280;14326;50.794;6.060;2023-05-14T12:50:23;99656.34;;;22.86;53.91
26719;BME280;14326;50.794;6.060;2023-05-14T12:52:50;99657.06;;;22.91;52.58
26719;BME280;14326;50.794;6.060;2023-05-14T12:55:16;99649.25;;;23.05;51.59
26719;BME280;14326;50.794;6.060;2023-05-14T12:57:43;99638.97;;;23.13;49.46
26719;BME280;14326;50.794;6.060;2023-05-14T13:00:10;99634.38;;;23.36;49.43
26719;BME280;14326;50.794;6.060;2023-05-14T13:02:38;99640.69;;;23.36;48.85
26719;BME280;14326;50.794;6.060;2023-05-14T13:05:05;99639.19;;;23.29;49.31
26719;BME280;14326;50.794;6.060;2023-05-14T13:07:35;99635.94;;;23.41;49.73
26719;BME280;14326;50.794;6.060;2023-05-14T13:10:11;99626.50;;;23.51;49.88
26719;BME280;14326;50.794;6.060;2023-05-14T13:12:44;99628.94;;;23.57;48.41
26719;BME280;14326;50.794;6.060;2023-05-14T13:15:11;99628.56;;;23.66;47.96
26719;BME280;14326;50.794;6.060;2023-05-14T13:17:38;99623.66;;;23.75;47.56
26719;BME280;14326;50.794;6.060;2023-05-14T13:20:06;99624.06;;;23.65;48.21
26719;BME280;14326;50.794;6.060;2023-05-14T13:22:33;99615.78;;;23.48;47.94
26719;BME280;14326;50.794;6.060;2023-05-14T13:25:02;99618.75;;;23.20;47.99
26719;BME280;14326;50.794;6.060;2023-05-14T13:27:31;99613.91;;;23.07;48.87
26719;BME280;14326;50.794;6.060;2023-05-14T13:30:00;99621.81;;;22.91;49.61
26719;BME280;14326;50.794;6.060;2023-05-14T13:32:28;99619.41;;;22.60;50.39
26719;BME280;14326;50.794;6.060;2023-05-14T13:34:56;99617.69;;;22.34;47.94
26719;BME280;14326;50.794;6.060;2023-05-14T13:37:24;99618.22;;;21.97;48.47
26719;BME280;14326;50.794;6.060;2023-05-14T13:40:04;99614.00;;;21.64;48.29
26719;BME280;14326;50.794;6.060;2023-05-14T13:42:53;99608.47;;;21.42;50.00
26719;BME280;14326;50.794;6.060;2023-05-14T13:45:37;99609.91;;;21.52;49.34
26719;BME280;14326;50.794;6.060;2023-05-14T13:51:08;99605.75;;;21.16;48.68
26719;BME280;14326;50.794;6.060;2023-05-14T13:53:41;99602.41;;;21.08;49.45
26719;BME280;14326;50.794;6.060;2023-05-14T13:56:13;99599.13;;;20.98;50.45
26719;BME280;14326;50.794;6.060;2023-05-14T13:58:45;99596.28;;;21.03;49.08
26719;BME280;14326;50.794;6.060;2023-05-14T14:01:30;99585.63;;;21.24;48.62
26719;BME280;14326;50.794;6.060;2023-05-14T14:03:59;99587.78;;;21.40;45.71
26719;BME280;14326;50.794;6.060;2023-05-14T14:06:30;99590.88;;;21.55;46.60
26719;BME280;14326;50.794;6.060;2023-05-14T14:09:00;99584.22;;;21.64;45.95
26719;BME280;14326;50.794;6.060;2023-05-14T14:11:26;99582.72;;;21.80;42.74
26719;BME280;14326;50.794;6.060;2023-05-14T14:13:53;99580.84;;;21.82;42.06
26719;BME280;14326;50.794;6.060;2023-05-14T14:16:28;99578.84;;;21.87;42.12
26719;BME280;14326;50.794;6.060;2023-05-14T14:19:17;99573.38;;;21.89;41.33
26719;BME280;14326;50.794;6.060;2023-05-14T14:22:17;99571.22;;;21.98;40.92
26719;BME280;14326;50.794;6.060;2023-05-14T14:25:03;99573.13;;;21.72;40.71
26719;BME280;14326;50.794;6.060;2023-05-14T14:27:58;99581.44;;;21.41;42.06
26719;BME280;14326;50.794;6.060;2023-05-14T14:30:28;99582.97;;;20.97;43.60
26719;BME280;14326;50.794;6.060;2023-05-14T14:33:11;99593.25;;;20.58;44.57
26719;BME280;14326;50.794;6.060;2023-05-14T14:36:07;99593.72;;;19.82;46.47
26719;BME280;14326;50.794;6.060;2023-05-14T14:41:49;99576.56;;;19.52;46.83
26719;BME280;14326;50.794;6.060;2023-05-14T14:44:27;99569.53;;;19.47;45.69
26719;BME280;14326;50.794;6.060;2023-05-14T14:46:58;99561.72;;;19.36;47.22
26719;BME280;14326;50.794;6.060;2023-05-14T14:49:33;99561.91;;;19.29;47.08